Hlavní strana
METAR-TAF:

METAR-TAF

Letiště :

Samsun, Turecko

zeměpisná šířka: 41-15-15N, zeměpisná délka: 036-34-03E, výška: 5 m

Aktuální stav počasí

Zpráva byla vytvořena před 26 minutami, v 00:50 UTC
Severozápadní vítr 21 kt
Teplota 13°C
Vlhkost vzduchu 88%
Tlak 1015 hPa
Viditelnost: 6000 m
Oblačno až skoro zataženo ve výšce 600 ft
Oblačno až skoro zataženo ve výšce 2800 ft
dešťové přeháňky

METAR: LTFH 090050Z 32021KT 6000 SHRA BKN006 BKN028 13/11 Q1015 BECMG 28009KT NSW BKN028 BKN080

Čas: 04:16 (01:16 UTC)

Předpověď počasí

Zpráva byla vytvořena před 2 hodinami a 36 minutami, v 22:40 UTC
Předpověď platná od 09 v 00 UTC do 09 v 09 UTC
Západní vítr 9 kt
Viditelnost: 8000 m
Oblačno až skoro zataženo ve výšce 2800 ft
Oblačno až skoro zataženo ve výšce 8000 ft
slabé dešťové přeháňky
Dočasný
od 09 v 00 UTC do 09 v 04 UTC
Západoseverozápadní vítr 20 kt s nárazy do 30 kt
dešťové přeháňky

TAF: LTFH 082240Z 0900/0909 28009KT 8000 -SHRA BKN028 BKN080 TEMPO 0900/0904 29020G30KT SHRA

Stav a předpovědi počasí z více než 4 000 letišť (zprávy METAR a TAF).

Červené a žluté tečky na mapě představují dostupné meteorologické stanice.

Když kurzor umístíte na tečku, zobrazí se název stanice.

Pak kliknutím zobrazíte stav a předpověď počasí.

Chcete-li změnit mapu, kliknutím na zelené tlačítko se znaménkem +mapu přiblížíte, kliknutím na zelené tlačítko se znaménkem – mapu oddálíte a kliknutím na zelené šipky přejdete na sousední mapy.


METAR-TAF: